37.0°F
Current conditions from King Hill
Updated every 5 minutes
 
  Tuesday November 25, 2014

Station Historical Data
Daily Summary for June 5, 2012 Units:  Metric    English   Both
« Previous Day
Next Day »
Daily Weekly Monthly Yearly Custom
  High: Low: Average:
Temperature: 19.6 °C 7.5 °C 13.1 °C
Dew Point: 11.6 °C 6.4 °C 8.8 °C
Humidity: 100% 49% 77%
Wind Speed: 12.9km/h 0km/h 4.2km/h
Wind Gust: 29km/h - -
Wind- - ENE
Pressure: 1012.8 hPa 1009.7 hPa -
Precipitation: 0.3 mm    
Historical Graphs
 
 
Tabular Data for June 5, 2012
Time Temperature Dew Point Pressure Wind Wind Speed Wind Gust Humidity Daily Rainfall
00:05 7.8 °C 6.8 °C 1010.4 hPa Calm     93% 0 mm
00:09 7.7 °C 6.7 °C 1010.4 hPa Calm     93% 0 mm
00:14 7.7 °C 6.4 °C 1010 hPa Calm     92% 0 mm
00:19 7.6 °C 6.6 °C 1010 hPa Calm     93% 0 mm
00:24 7.7 °C 6.6 °C 1010 hPa Calm     93% 0 mm
00:29 7.6 °C 6.6 °C 1010 hPa Calm     93% 0 mm
00:35 7.6 °C 6.5 °C 1010 hPa Calm     93% 0 mm
00:39 7.5 °C 6.4 °C 1010 hPa Calm     93% 0 mm
00:44 7.6 °C 6.5 °C 1010 hPa Calm     93% 0 mm
00:49 7.6 °C 6.5 °C 1010.4 hPa Calm     93% 0 mm
00:54 7.5 °C 6.4 °C 1010.4 hPa Calm     93% 0 mm
00:59 7.5 °C 6.4 °C 1010.4 hPa Calm     93% 0 mm
01:04 7.5 °C 6.4 °C 1010.4 hPa Calm     93% 0 mm
01:09 7.6 °C 6.7 °C 1010.4 hPa Calm     94% 0 mm
01:14 7.7 °C 6.8 °C 1010.4 hPa Calm     94% 0 mm
01:19 7.9 °C 7 °C 1010.4 hPa Calm     94% 0 mm
01:29 8.1 °C 7.2 °C 1010 hPa Calm     94% 0 mm
01:34 8.2 °C 7.4 °C 1010 hPa Calm     95% 0 mm
01:39 8.4 °C 7.6 °C 1010 hPa Calm     95% 0 mm
01:44 8.5 °C 7.7 °C 1010 hPa Calm     95% 0 mm
01:49 8.6 °C 7.8 °C 1010 hPa Calm     95% 0 mm
01:54 8.7 °C 7.9 °C 1010 hPa Calm   3.2 km/h 95% 0 mm
01:59 8.8 °C 8 °C 1010 hPa Calm   3.2 km/h 95% 0 mm
02:04 8.8 °C 8.1 °C 1010 hPa Calm   1.6 km/h 95% 0 mm
02:09 8.9 °C 8.1 °C 1009.7 hPa Calm     95% 0 mm
02:14 8.9 °C 8.2 °C 1010 hPa Calm     95% 0 mm
02:19 9 °C 8.2 °C 1010 hPa Calm   1.6 km/h 95% 0 mm
02:24 9.1 °C 8.3 °C 1010 hPa Calm   6.4 km/h 95% 0 mm
02:34 9.2 °C 8.4 °C 1010 hPa Calm   3.2 km/h 95% 0 mm
02:39 9.3 °C 8.6 °C 1010 hPa Calm   3.2 km/h 95% 0 mm
02:44 9.4 °C 8.6 °C 1010 hPa Calm   3.2 km/h 95% 0 mm
02:49 9.4 °C 8.7 °C 1010 hPa Calm   1.6 km/h 95% 0 mm
02:54 9.4 °C 8.7 °C 1010 hPa Calm   1.6 km/h 95% 0 mm
02:59 9.5 °C 8.7 °C 1010 hPa Calm   1.6 km/h 95% 0 mm
03:04 9.5 °C 8.7 °C 1010 hPa Calm   3.2 km/h 95% 0 mm
03:09 9.5 °C 8.7 °C 1010 hPa Calm   3.2 km/h 95% 0 mm
03:14 9.4 °C 8.7 °C 1010 hPa Calm     95% 0 mm
03:19 9.5 °C 8.7 °C 1010 hPa Calm     95% 0 mm
03:24 9.5 °C 8.7 °C 1010 hPa Calm     95% 0 mm
03:29 9.5 °C 8.7 °C 1009.7 hPa Calm   1.6 km/h 95% 0 mm
03:34 9.5 °C 8.7 °C 1009.7 hPa Calm   4.8 km/h 95% 0 mm
03:39 9.6 °C 8.8 °C 1009.7 hPa Calm   6.4 km/h 95% 0 mm
03:44 9.6 °C 8.8 °C 1009.7 hPa Calm   6.4 km/h 95% 0 mm
03:49 9.6 °C 8.8 °C 1009.7 hPa Calm   4.8 km/h 95% 0 mm
03:54 9.5 °C 8.7 °C 1009.7 hPa Calm     95% 0 mm
03:59 9.4 °C 8.6 °C 1009.7 hPa Calm     95% 0 mm
04:04 9.3 °C 8.6 °C 1009.7 hPa Calm     95% 0 mm
04:09 9.2 °C 8.4 °C 1010 hPa Calm   3.2 km/h 95% 0 mm
04:14 9.2 °C 8.4 °C 1010 hPa Calm   3.2 km/h 95% 0 mm
04:19 9.2 °C 8.4 °C 1009.7 hPa Calm   3.2 km/h 95% 0 mm
04:24 9.1 °C 8.3 °C 1010 hPa Calm   4.8 km/h 95% 0 mm
04:29 9.1 °C 8.3 °C 1010 hPa NNE 3.2 km/h 6.4 km/h 95% 0 mm
04:34 9.1 °C 8.3 °C 1010 hPa Calm   6.4 km/h 95% 0 mm
04:39 9.1 °C 8.3 °C 1010 hPa Calm   4.8 km/h 95% 0 mm
04:44 9 °C 8.2 °C 1010 hPa Calm   4.8 km/h 95% 0 mm
04:49 8.9 °C 8.1 °C 1010 hPa Calm   1.6 km/h 95% 0 mm
04:54 8.8 °C 8.1 °C 1010 hPa NNE 1.6 km/h 4.8 km/h 95% 0 mm
04:59 8.8 °C 8 °C 1010 hPa Calm   4.8 km/h 95% 0 mm
05:04 8.8 °C 8 °C 1010 hPa NNE 1.6 km/h 4.8 km/h 95% 0 mm
05:09 8.9 °C 8.1 °C 1010 hPa Calm   4.8 km/h 95% 0 mm
05:14 9 °C 8.2 °C 1010.4 hPa Calm   4.8 km/h 95% 0 mm
05:19 9.1 °C 8.3 °C 1010.4 hPa NNE 1.6 km/h 8 km/h 95% 0 mm
05:24 9.2 °C 8.4 °C 1010.4 hPa Calm   8 km/h 95% 0 mm
05:29 9.2 °C 8.4 °C 1010.4 hPa Calm   6.4 km/h 95% 0 mm
05:34 9.1 °C 8.3 °C 1010.4 hPa NNE 1.6 km/h 4.8 km/h 95% 0 mm
05:39 9.1 °C 8.3 °C 1010.4 hPa NNE 1.6 km/h 6.4 km/h 95% 0 mm
05:49 8.9 °C 8.2 °C 1010.7 hPa Calm   6.4 km/h 95% 0 mm
05:59 8.7 °C 7.9 °C 1010.7 hPa Calm   4.8 km/h 95% 0 mm
06:04 8.7 °C 7.9 °C 1010.7 hPa NE 1.6 km/h 8 km/h 95% 0 mm
06:09 8.8 °C 8.1 °C 1010.7 hPa North 1.6 km/h 8 km/h 95% 0 mm
06:14 8.9 °C 8.1 °C 1010.7 hPa Calm   6.4 km/h 95% 0 mm
06:19 8.9 °C 8.2 °C 1011.1 hPa NNE 1.6 km/h 4.8 km/h 95% 0 mm
06:24 9 °C 8.2 °C 1011.1 hPa Calm   4.8 km/h 95% 0 mm
06:29 9 °C 9 °C 1011.1 hPa Calm   4.8 km/h 100% 0 mm
06:39 9.1 °C 8.3 °C 1011.1 hPa Calm   1.6 km/h 95% 0 mm
06:44 9.2 °C 8.4 °C 1011.1 hPa Calm   4.8 km/h 95% 0 mm
06:49 9.3 °C 8.5 °C 1011.1 hPa NNE 1.6 km/h 6.4 km/h 95% 0 mm
06:59 9.4 °C 8.7 °C 1011.4 hPa NNE 1.6 km/h 6.4 km/h 95% 0 mm
07:04 9.6 °C 8.8 °C 1011.4 hPa NNE 1.6 km/h 6.4 km/h 95% 0 mm
07:09 9.7 °C 8.9 °C 1011.4 hPa Calm   4.8 km/h 95% 0 mm
07:14 9.8 °C 9 °C 1011.4 hPa Calm   4.8 km/h 95% 0 mm
07:19 9.9 °C 9.1 °C 1011.4 hPa NNE 1.6 km/h 8 km/h 95% 0 mm
07:24 10.1 °C 9.3 °C 1011.4 hPa Calm   9.7 km/h 95% 0 mm
07:29 10.3 °C 9.6 °C 1011.4 hPa NNE 3.2 km/h 9.7 km/h 95% 0 mm
07:34 10.4 °C 9 °C 1011.4 hPa Calm   12.9 km/h 91% 0 mm
07:39 10.7 °C 9.1 °C 1011.7 hPa Calm   12.9 km/h 90% 0 mm
07:44 10.9 °C 9.2 °C 1011.7 hPa Calm   6.4 km/h 89% 0 mm
07:49 11.2 °C 9.1 °C 1011.7 hPa Calm   6.4 km/h 87% 0 mm
07:54 11.4 °C 9 °C 1011.7 hPa Calm   9.7 km/h 85% 0 mm
07:59 11.9 °C 9.3 °C 1011.7 hPa Calm   9.7 km/h 84% 0 mm
08:04 12.4 °C 9.4 °C 1011.7 hPa Calm   12.9 km/h 82% 0 mm
08:09 12.8 °C 9.2 °C 1011.7 hPa NNE 1.6 km/h 12.9 km/h 79% 0 mm
08:14 12.9 °C 8.6 °C 1011.7 hPa NNW 4.8 km/h 14.5 km/h 75% 0 mm
08:24 12.7 °C 8.6 °C 1011.7 hPa Calm   16.1 km/h 76% 0 mm
08:29 12.7 °C 8.7 °C 1011.7 hPa NNE 1.6 km/h 14.5 km/h 77% 0 mm
08:34 12.8 °C 8.7 °C 1011.7 hPa North 1.6 km/h 11.3 km/h 76% 0 mm
08:39 12.8 °C 8.7 °C 1011.7 hPa Calm   16.1 km/h 76% 0 mm
08:44 12.9 °C 8.8 °C 1011.7 hPa North 1.6 km/h 16.1 km/h 76% 0 mm
08:49 13.1 °C 9 °C 1011.7 hPa North 4.8 km/h 16.1 km/h 76% 0 mm
08:54 13.3 °C 8.8 °C 1011.7 hPa ENE 1.6 km/h 17.7 km/h 74% 0 mm
09:04 14.2 °C 8.6 °C 1011.7 hPa NNE 1.6 km/h 16.1 km/h 69% 0 mm
09:09 14.4 °C 8.6 °C 1011.7 hPa North 3.2 km/h 16.1 km/h 68% 0 mm
09:14 14.6 °C 8.7 °C 1011.7 hPa NNE 4.8 km/h 20.9 km/h 68% 0 mm
09:19 14.2 °C 8.4 °C 1011.7 hPa NE 4.8 km/h 20.9 km/h 68% 0 mm
09:24 14.1 °C 8.7 °C 1011.7 hPa NW 1.6 km/h 19.3 km/h 70% 0 mm
09:29 14.3 °C 8.9 °C 1011.7 hPa NE 3.2 km/h 14.5 km/h 70% 0 mm
09:34 14.9 °C 9.5 °C 1011.7 hPa NE 1.6 km/h 14.5 km/h 70% 0 mm
09:39 15.6 °C 10.2 °C 1011.7 hPa NNW 1.6 km/h 11.3 km/h 70% 0 mm
09:49 15.2 °C 9.1 °C 1011.7 hPa NNE 4.8 km/h 20.9 km/h 67% 0 mm
09:54 15.2 °C 9.7 °C 1011.7 hPa NE 1.6 km/h 20.9 km/h 70% 0 mm
09:59 15.3 °C 9.4 °C 1011.7 hPa NE 3.2 km/h 11.3 km/h 68% 0 mm
10:04 15 °C 8.7 °C 1011.7 hPa North 3.2 km/h 14.5 km/h 66% 0 mm
10:09 14.7 °C 8.4 °C 1011.7 hPa NE 1.6 km/h 16.1 km/h 66% 0 mm
10:14 14.5 °C 8 °C 1011.7 hPa NNE 3.2 km/h 16.1 km/h 65% 0 mm
10:19 14.6 °C 8.5 °C 1011.7 hPa NE 1.6 km/h 17.7 km/h 67% 0 mm
10:24 14.9 °C 9.3 °C 1011.7 hPa Calm   17.7 km/h 69% 0 mm
10:29 15.4 °C 9.6 °C 1011.7 hPa NNE 3.2 km/h 16.1 km/h 68% 0 mm
10:34 16.1 °C 8.8 °C 1011.7 hPa NNE 8 km/h 22.5 km/h 62% 0 mm
10:39 16.6 °C 9.5 °C 1011.7 hPa NNE 6.4 km/h 22.5 km/h 63% 0 mm
10:44 17 °C 9.4 °C 1011.7 hPa NNE 4.8 km/h 22.5 km/h 61% 0 mm
10:49 17.2 °C 10.1 °C 1011.4 hPa NNE 4.8 km/h 22.5 km/h 63% 0 mm
10:54 17.1 °C 8.8 °C 1011.7 hPa NNE 9.7 km/h 29 km/h 58% 0 mm
10:59 16.5 °C 8.4 °C 1011.7 hPa NE 8 km/h 29 km/h 59% 0 mm
11:04 16.5 °C 8.7 °C 1011.7 hPa NNE 9.7 km/h 22.5 km/h 60% 0 mm
11:09 16.8 °C 8.7 °C 1011.7 hPa NNE 11.3 km/h 27.4 km/h 59% 0 mm
11:14 16.8 °C 8.8 °C 1011.7 hPa NNE 4.8 km/h 27.4 km/h 59% 0 mm
11:19 16.7 °C 9.1 °C 1011.7 hPa NNE 8 km/h 20.9 km/h 61% 0 mm
11:24 16.6 °C 9.3 °C 1011.7 hPa North 4.8 km/h 22.5 km/h 62% 0 mm
11:29 16.8 °C 8.3 °C 1012.1 hPa NNE 9.7 km/h 29 km/h 57% 0 mm
11:34 16.6 °C 8.3 °C 1011.7 hPa NE 11.3 km/h 29 km/h 58% 0 mm
11:39 16.4 °C 8.2 °C 1011.7 hPa NE 6.4 km/h 29 km/h 58% 0 mm
11:44 17.1 °C 9.2 °C 1011.7 hPa NNE 8 km/h 29 km/h 60% 0 mm
11:49 17 °C 8.4 °C 1011.7 hPa NNE 12.9 km/h 25.7 km/h 57% 0 mm
11:54 16.8 °C 8.7 °C 1012.1 hPa NNE 4.8 km/h 25.7 km/h 59% 0 mm
11:59 16.7 °C 8.4 °C 1012.1 hPa North 9.7 km/h 17.7 km/h 58% 0 mm
12:04 16.6 °C 8.8 °C 1012.1 hPa NE 8 km/h 17.7 km/h 60% 0 mm
12:09 17.1 °C 9.2 °C 1011.7 hPa NE 3.2 km/h 16.1 km/h 60% 0 mm
12:14 17.5 °C 9.4 °C 1012.1 hPa NNE 8 km/h 24.1 km/h 59% 0 mm
12:19 17.6 °C 9 °C 1012.1 hPa NE 4.8 km/h 24.1 km/h 57% 0 mm
12:24 17.4 °C 8.6 °C 1012.1 hPa NNE 6.4 km/h 17.7 km/h 56% 0 mm
12:29 16.9 °C 8.6 °C 1012.1 hPa NE 4.8 km/h 17.7 km/h 58% 0 mm
12:34 17.1 °C 8.7 °C 1012.1 hPa NE 3.2 km/h 14.5 km/h 58% 0 mm
12:39 17.2 °C 9.4 °C 1012.1 hPa ENE 3.2 km/h 14.5 km/h 60% 0 mm
12:44 17.3 °C 9 °C 1012.1 hPa North 1.6 km/h 16.1 km/h 58% 0 mm
12:49 17.4 °C 8.8 °C 1012.1 hPa NE 3.2 km/h 19.3 km/h 57% 0 mm
12:54 17.9 °C 9.6 °C 1011.7 hPa NNW 3.2 km/h 19.3 km/h 58% 0 mm
12:59 18.6 °C 10.4 °C 1011.7 hPa East 4.8 km/h 20.9 km/h 59% 0 mm
13:04 18.1 °C 8.4 °C 1011.7 hPa NE 8 km/h 20.9 km/h 53% 0 mm
13:14 17.7 °C 8.5 °C 1011.7 hPa NNE 9.7 km/h 16.1 km/h 55% 0 mm
13:19 17.6 °C 8.2 °C 1011.7 hPa NE 3.2 km/h 16.1 km/h 54% 0 mm
13:24 17.9 °C 8.8 °C 1011.7 hPa NE 6.4 km/h 16.1 km/h 55% 0 mm
13:29 18.1 °C 8.1 °C 1011.7 hPa NNE 9.7 km/h 19.3 km/h 52% 0 mm
13:34 18 °C 8.6 °C 1011.7 hPa ENE 3.2 km/h 19.3 km/h 54% 0 mm
13:39 17.9 °C 8.8 °C 1011.7 hPa ENE 1.6 km/h 14.5 km/h 55% 0 mm
13:44 18.5 °C 10.3 °C 1011.7 hPa Calm   11.3 km/h 59% 0 mm
13:49 19.2 °C 9.9 °C 1011.7 hPa NNE 1.6 km/h 12.9 km/h 55% 0 mm
13:54 19.3 °C 10.6 °C 1011.7 hPa NNE 1.6 km/h 12.9 km/h 57% 0 mm
13:59 19.3 °C 9.7 °C 1011.7 hPa Calm   8 km/h 54% 0 mm
14:04 18.8 °C 8.5 °C 1011.7 hPa NNE 3.2 km/h 14.5 km/h 51% 0 mm
14:09 18.3 °C 8.9 °C 1011.7 hPa Calm   14.5 km/h 54% 0 mm
14:19 18.8 °C 9.3 °C 1011.4 hPa Calm   11.3 km/h 54% 0 mm
14:24 19.2 °C 9.4 °C 1011.4 hPa NNE 1.6 km/h 14.5 km/h 53% 0 mm
14:29 19.2 °C 9.1 °C 1011.7 hPa NE 1.6 km/h 14.5 km/h 52% 0 mm
14:34 18.9 °C 8.8 °C 1011.4 hPa Calm   14.5 km/h 52% 0 mm
14:39 18.3 °C 7.4 °C 1011.4 hPa NNW 1.6 km/h 14.5 km/h 49% 0 mm
14:44 18.2 °C 8.2 °C 1011.7 hPa Calm   12.9 km/h 52% 0 mm
14:49 18.2 °C 8.4 °C 1011.7 hPa Calm   12.9 km/h 53% 0 mm
14:54 18.5 °C 9.6 °C 1011.7 hPa NNE 1.6 km/h 12.9 km/h 56% 0 mm
14:59 18.6 °C 8.3 °C 1011.7 hPa Calm   12.9 km/h 51% 0 mm
15:04 18.6 °C 8 °C 1011.7 hPa NNE 4.8 km/h 12.9 km/h 50% 0 mm
15:09 18.3 °C 8.3 °C 1011.7 hPa Calm   16.1 km/h 52% 0 mm
15:14 17.7 °C 9.6 °C 1011.7 hPa Calm   16.1 km/h 59% 0 mm
15:19 17.2 °C 8.8 °C 1011.7 hPa Calm   8 km/h 58% 0 mm
15:24 17.1 °C 9.7 °C 1011.7 hPa Calm   1.6 km/h 62% 0 mm
15:29 17.6 °C 10.2 °C 1011.4 hPa Calm   3.2 km/h 62% 0 mm
15:34 18.3 °C 11.6 °C 1011.4 hPa Calm   3.2 km/h 65% 0 mm
15:39 19.1 °C 9.8 °C 1011.4 hPa Calm   8 km/h 55% 0 mm
15:44 19.5 °C 9.9 °C 1011.4 hPa Calm   8 km/h 54% 0 mm
15:49 19.4 °C 10.4 °C 1011.7 hPa Calm   16.1 km/h 56% 0 mm
15:54 19.3 °C 10.6 °C 1011.7 hPa NNW 1.6 km/h 17.7 km/h 57% 0 mm
15:59 19.6 °C 11.1 °C 1011.7 hPa NNW 4.8 km/h 17.7 km/h 58% 0 mm
16:04 18.9 °C 10.5 °C 1011.7 hPa North 6.4 km/h 24.1 km/h 58% 0 mm
16:09 17.7 °C 10.1 °C 1011.7 hPa NW 1.6 km/h 24.1 km/h 61% 0 mm
16:14 16.9 °C 10.6 °C 1011.7 hPa Calm   20.9 km/h 66% 0 mm
16:19 16.3 °C 10 °C 1011.7 hPa Calm   12.9 km/h 66% 0 mm
16:24 16 °C 9.7 °C 1011.7 hPa Calm   12.9 km/h 66% 0 mm
16:29 15.9 °C 10.4 °C 1011.7 hPa Calm   3.2 km/h 70% 0 mm
16:34 15.7 °C 9.6 °C 1011.7 hPa Calm   9.7 km/h 67% 0 mm
16:39 15.6 °C 9.2 °C 1011.7 hPa Calm   9.7 km/h 66% 0 mm
16:44 15.3 °C 8.6 °C 1011.7 hPa NNE 1.6 km/h 8 km/h 64% 0 mm
16:49 15.2 °C 8.7 °C 1011.4 hPa Calm   8 km/h 65% 0 mm
16:54 15.2 °C 8.6 °C 1011.7 hPa Calm   3.2 km/h 65% 0 mm
16:59 15.3 °C 9.4 °C 1011.7 hPa Calm   1.6 km/h 68% 0 mm
17:04 15.4 °C 9.1 °C 1011.4 hPa Calm     66% 0 mm
17:09 15.6 °C 9.3 °C 1011.4 hPa SSW 1.6 km/h 4.8 km/h 66% 0 mm
17:14 15.9 °C 10.5 °C 1011.4 hPa Calm   4.8 km/h 70% 0 mm
17:19 16.2 °C 9.4 °C 1011.4 hPa Calm     64% 0 mm
17:24 16.2 °C 9.4 °C 1011.4 hPa Calm   1.6 km/h 64% 0 mm
17:29 16.6 °C 9.7 °C 1011.1 hPa Calm   1.6 km/h 64% 0 mm
17:34 16.8 °C 9.5 °C 1011.1 hPa Calm   1.6 km/h 62% 0 mm
17:39 17.2 °C 9.6 °C 1011.1 hPa Calm   3.2 km/h 61% 0 mm
17:44 17.5 °C 8.9 °C 1011.1 hPa SW 3.2 km/h 6.4 km/h 57% 0 mm
17:49 17.4 °C 9.3 °C 1011.1 hPa Calm   6.4 km/h 59% 0 mm
17:59 17.7 °C 9.1 °C 1011.1 hPa Calm     57% 0 mm
18:04 17.7 °C 9.3 °C 1011.1 hPa Calm   1.6 km/h 58% 0 mm
18:09 17.8 °C 8.6 °C 1011.1 hPa Calm   1.6 km/h 55% 0 mm
18:14 18.2 °C 8.5 °C 1011.1 hPa Calm   4.8 km/h 53% 0 mm
18:19 18.3 °C 9.1 °C 1011.1 hPa Calm   4.8 km/h 55% 0 mm
18:24 18.2 °C 9 °C 1011.1 hPa Calm   9.7 km/h 55% 0 mm
18:29 18.1 °C 8.9 °C 1011.1 hPa Calm   9.7 km/h 55% 0 mm
18:34 18.1 °C 8.9 °C 1011.1 hPa Calm   1.6 km/h 55% 0 mm
18:39 18.1 °C 8.9 °C 1011.1 hPa Calm   1.6 km/h 55% 0 mm
18:44 18.2 °C 9.6 °C 1011.1 hPa Calm   1.6 km/h 57% 0 mm
18:49 18.2 °C 9.1 °C 1011.1 hPa Calm   1.6 km/h 55% 0 mm
18:54 17.9 °C 9.1 °C 1011.4 hPa Calm   1.6 km/h 56% 0 mm
18:59 17.7 °C 10.1 °C 1011.4 hPa Calm   1.6 km/h 61% 0 mm
19:04 17.2 °C 9.2 °C 1011.4 hPa Calm   1.6 km/h 59% 0 mm
19:09 16.8 °C 10 °C 1011.4 hPa Calm   1.6 km/h 64% 0 mm
19:14 16.5 °C 10.6 °C 1011.4 hPa Calm     68% 0 mm
19:24 15.4 °C 10.8 °C 1011.4 hPa Calm   1.6 km/h 74% 0.3 mm
19:29 15 °C 11 °C 1011.4 hPa Calm     77% 0.3 mm
19:34 14.4 °C 10.8 °C 1011.4 hPa Calm     79% 0.3 mm
19:44 13.4 °C 10.1 °C 1011.7 hPa Calm     80% 0.3 mm
19:49 13.2 °C 10 °C 1011.7 hPa Calm     81% 0.3 mm
19:54 13.1 °C 10.1 °C 1011.7 hPa Calm     82% 0.3 mm
19:59 12.9 °C 10.1 °C 1011.7 hPa Calm     83% 0.3 mm
20:04 12.8 °C 10.2 °C 1011.7 hPa Calm     84% 0.3 mm
20:09 12.7 °C 10.1 °C 1011.7 hPa Calm     84% 0.3 mm
20:14 12.4 °C 9.8 °C 1011.4 hPa Calm     84% 0.3 mm
20:19 12.2 °C 9.6 °C 1011.4 hPa Calm     84% 0.3 mm
20:24 11.8 °C 9.2 °C 1011.4 hPa Calm     84% 0.3 mm
20:29 11.6 °C 9 °C 1011.7 hPa Calm     84% 0.3 mm
20:34 11.2 °C 8.6 °C 1011.7 hPa Calm     84% 0.3 mm
20:39 10.9 °C 8.5 °C 1011.7 hPa Calm     85% 0.3 mm
20:44 10.8 °C 8.3 °C 1011.7 hPa Calm     85% 0.3 mm
20:49 10.6 °C 8.2 °C 1011.7 hPa Calm     85% 0.3 mm
20:54 10.4 °C 8.2 °C 1011.7 hPa Calm     86% 0.3 mm
20:59 10.3 °C 8.1 °C 1011.7 hPa Calm     86% 0.3 mm
21:04 10.1 °C 7.8 °C 1011.7 hPa Calm     86% 0.3 mm
21:09 9.8 °C 7.6 °C 1011.7 hPa Calm     86% 0.3 mm
21:14 9.7 °C 7.5 °C 1012.1 hPa Calm     86% 0.3 mm
21:24 9.5 °C 7.4 °C 1012.1 hPa Calm     87% 0.3 mm
21:34 9.6 °C 7.8 °C 1012.1 hPa Calm     89% 0.3 mm
21:44 9.8 °C 8.3 °C 1012.1 hPa Calm     90% 0.3 mm
21:49 9.9 °C 8.3 °C 1012.1 hPa Calm     90% 0.3 mm
21:54 9.9 °C 8.4 °C 1012.1 hPa Calm     90% 0.3 mm
21:59 9.9 °C 8.4 °C 1012.1 hPa Calm     90% 0.3 mm
22:04 9.9 °C 8.6 °C 1012.1 hPa Calm     91% 0.3 mm
22:09 10.1 °C 8.7 °C 1012.1 hPa Calm     91% 0.3 mm
22:14 10 °C 8.6 °C 1012.1 hPa Calm     91% 0.3 mm
22:19 10.1 °C 8.7 °C 1012.1 hPa Calm     91% 0.3 mm
22:24 10.1 °C 8.7 °C 1012.1 hPa Calm     91% 0.3 mm
22:29 10 °C 9.2 °C 1012.4 hPa Calm     95% 0.3 mm
22:34 10.1 °C 8.8 °C 1012.4 hPa Calm     92% 0.3 mm
22:39 10.2 °C 9 °C 1012.4 hPa Calm   1.6 km/h 92% 0.3 mm
22:44 10.4 °C 9.4 °C 1012.4 hPa Calm   3.2 km/h 93% 0.3 mm
22:54 10.4 °C 9.2 °C 1012.4 hPa Calm     92% 0.3 mm
22:59 10.4 °C 9.4 °C 1012.4 hPa Calm   1.6 km/h 93% 0.3 mm
23:04 10.5 °C 9.4 °C 1012.4 hPa Calm   1.6 km/h 93% 0.3 mm
23:09 10.5 °C 9.4 °C 1012.8 hPa Calm     93% 0.3 mm
23:14 10.7 °C 9.6 °C 1012.4 hPa Calm     93% 0.3 mm
23:24 10.6 °C 9.5 °C 1012.4 hPa Calm   4.8 km/h 93% 0.3 mm
23:34 10.7 °C 9.4 °C 1012.8 hPa Calm     92% 0.3 mm
23:39 10.6 °C 9.4 °C 1012.4 hPa Calm   1.6 km/h 92% 0.3 mm
23:49 10.4 °C 9.2 °C 1012.4 hPa Calm     92% 0.3 mm
23:54 10.3 °C 8.9 °C 1012.8 hPa Calm     91% 0.3 mm
23:59 10.2 °C 8.8 °C 1012.8 hPa Calm     91% 0.3 mm
Westford Weather
Compliments of Weather Underground

 
 
Current Radar Loop:

Copyright © WestfordWeather.net 2007-2014. All rights reserved.